Time;durP1;ratioP1;P1;durP2;ratioP2;P2;SDS_P1;SDS_P2;PMS_P1;PMS_P2;Temp;Humidity;BMP_temperature;BMP_pressure;BME280_temperature;BME280_humidity;BME280_pressure;Samples;Min_cycle;Max_cycle;Signal;HPM_P1;HPM_P2
2023/07/20 00:00:53;;;;;;;6.80;2.50;;;16.90;99.90;;;;;;5034197;28;20052;-71
2023/07/20 00:03:24;;;;;;;4.82;2.35;;;16.90;99.90;;;;;;5015971;28;20070;-72
2023/07/20 00:05:51;;;;;;;6.38;2.33;;;16.90;99.90;;;;;;5033803;28;20038;-72
2023/07/20 00:08:18;;;;;;;3.55;2.45;;;16.90;99.90;;;;;;5033606;28;20052;-75
2023/07/20 00:10:44;;;;;;;4.65;2.25;;;16.80;99.90;;;;;;5033634;28;20049;-72
2023/07/20 00:13:11;;;;;;;2.88;2.10;;;16.80;99.90;;;;;;5033593;28;20041;-72
2023/07/20 00:15:37;;;;;;;3.75;2.45;;;16.80;99.90;;;;;;5033430;28;20660;-72
2023/07/20 00:18:04;;;;;;;2.95;2.40;;;16.80;99.90;;;;;;5031875;28;20054;-72
2023/07/20 00:20:30;;;;;;;4.05;2.65;;;16.80;99.90;;;;;;5032176;28;20041;-71
2023/07/20 00:22:57;;;;;;;5.68;2.72;;;16.80;99.90;;;;;;5032288;28;20502;-73
2023/07/20 00:25:23;;;;;;;3.20;2.30;;;16.80;99.90;;;;;;5031702;28;20079;-73
2023/07/20 00:27:50;;;;;;;3.45;2.53;;;16.80;99.90;;;;;;5033256;28;20045;-73
2023/07/20 00:30:16;;;;;;;3.63;2.70;;;16.80;99.90;;;;;;5032274;28;20057;-72
2023/07/20 00:32:45;;;;;;;5.30;2.60;;;16.70;99.90;;;;;;5032002;28;20110;-72
2023/07/20 00:35:11;;;;;;;7.03;2.80;;;16.70;99.90;;;;;;5031992;28;20391;-72
2023/07/20 00:37:38;;;;;;;4.75;2.80;;;16.70;99.90;;;;;;5031424;28;20045;-72
2023/07/20 00:40:07;;;;;;;8.23;2.30;;;16.60;99.90;;;;;;5032117;28;20046;-72
2023/07/20 00:42:33;;;;;;;3.53;2.58;;;16.60;99.90;;;;;;5031746;28;20085;-72
2023/07/20 00:44:59;;;;;;;3.78;2.47;;;16.60;99.90;;;;;;5031958;28;20215;-73
2023/07/20 00:47:25;;;;;;;6.45;2.50;;;16.60;99.90;;;;;;5032398;28;20041;-75
2023/07/20 00:49:52;;;;;;;4.60;2.45;;;16.50;99.90;;;;;;5032236;28;20057;-72
2023/07/20 00:52:20;;;;;;;5.18;2.42;;;16.50;99.90;;;;;;5032907;28;20053;-72
2023/07/20 00:54:46;;;;;;;4.25;2.75;;;16.50;99.90;;;;;;5031430;28;20057;-72
2023/07/20 00:57:15;;;;;;;4.25;2.40;;;16.40;99.90;;;;;;5048167;28;20049;-72
2023/07/20 00:59:41;;;;;;;5.57;2.42;;;16.40;99.90;;;;;;5031414;28;20049;-72
2023/07/20 01:02:06;;;;;;;3.97;2.83;;;16.30;99.90;;;;;;5015105;28;20111;-72
2023/07/20 01:04:33;;;;;;;3.63;2.72;;;16.20;99.90;;;;;;5032053;28;20045;-72
2023/07/20 01:07:33;;;;;;;4.85;2.65;;;16.20;99.90;;;;;;5048047;28;20053;-73
2023/07/20 01:10:17;;;;;;;4.95;2.90;;;16.10;99.90;;;;;;5027327;28;20053;-73
2023/07/20 01:12:46;;;;;;;4.53;2.75;;;16.10;99.90;;;;;;5031241;28;20053;-72
2023/07/20 01:15:12;;;;;;;3.65;2.70;;;16.00;99.90;;;;;;5032149;28;20558;-72
2023/07/20 01:17:38;;;;;;;4.93;2.80;;;16.00;99.90;;;;;;5031596;28;20141;-72
2023/07/20 01:20:07;;;;;;;3.40;2.60;;;16.00;99.90;;;;;;5032411;28;20053;-72
2023/07/20 01:23:10;;;;;;;5.07;2.80;;;16.00;99.90;;;;;;5031808;28;20041;-73
2023/07/20 01:25:57;;;;;;;4.97;2.95;;;15.90;99.90;;;;;;5030994;28;20091;-72
2023/07/20 01:28:34;;;;;;;7.65;2.70;;;15.80;99.90;;;;;;5031371;28;20114;-71
2023/07/20 01:31:22;;;;;;;4.78;2.45;;;15.80;99.90;;;;;;5031094;28;20053;-72
2023/07/20 01:33:51;;;;;;;6.05;2.65;;;15.70;99.90;;;;;;5032074;28;20055;-71
2023/07/20 01:36:18;;;;;;;4.10;2.70;;;15.70;99.90;;;;;;5031173;28;20450;-71
2023/07/20 01:38:45;;;;;;;5.15;2.97;;;15.70;99.90;;;;;;5030625;28;20509;-72
2023/07/20 01:41:11;;;;;;;5.20;2.90;;;15.70;99.90;;;;;;5032184;28;20107;-72
2023/07/20 01:43:37;;;;;;;4.15;2.67;;;15.60;99.90;;;;;;5047189;28;20045;-72
2023/07/20 01:46:02;;;;;;;4.80;2.83;;;15.60;99.90;;;;;;5032233;28;20041;-72
2023/07/20 01:48:28;;;;;;;4.40;2.60;;;15.50;99.90;;;;;;5030905;28;20565;-73
2023/07/20 01:50:54;;;;;;;6.53;2.38;;;15.50;99.90;;;;;;5046867;28;20052;-73
2023/07/20 01:53:20;;;;;;;6.30;2.25;;;15.40;99.90;;;;;;5030669;28;20053;-72
2023/07/20 01:55:46;;;;;;;3.92;2.50;;;15.40;99.90;;;;;;5030619;28;20092;-72
2023/07/20 01:58:12;;;;;;;3.85;2.60;;;15.40;99.90;;;;;;5030956;28;20072;-72
2023/07/20 02:00:38;;;;;;;4.50;2.22;;;15.40;99.90;;;;;;5031481;28;20479;-72
2023/07/20 02:03:04;;;;;;;5.22;2.58;;;15.30;99.90;;;;;;5032227;28;20410;-72
2023/07/20 02:05:30;;;;;;;4.25;2.10;;;15.30;99.90;;;;;;5031997;28;20053;-72
2023/07/20 02:07:56;;;;;;;3.92;2.60;;;15.30;99.90;;;;;;5030360;28;20120;-71
2023/07/20 02:10:21;;;;;;;5.07;2.63;;;15.30;99.90;;;;;;5031691;28;20097;-72
2023/07/20 02:12:47;;;;;;;4.90;2.42;;;15.30;99.90;;;;;;5030305;28;20077;-72
2023/07/20 02:15:16;;;;;;;4.47;2.30;;;15.30;99.90;;;;;;5014568;28;20049;-72
2023/07/20 02:17:42;;;;;;;4.95;2.50;;;15.30;99.90;;;;;;5016273;28;20140;-72
2023/07/20 02:20:10;;;;;;;6.10;2.47;;;15.20;99.90;;;;;;5034745;28;20482;-72
2023/07/20 02:22:37;;;;;;;3.75;2.30;;;15.20;99.90;;;;;;5035878;28;20049;-72
2023/07/20 02:25:04;;;;;;;3.88;2.38;;;15.20;99.90;;;;;;5035468;28;20049;-72
2023/07/20 02:27:30;;;;;;;3.75;2.30;;;15.20;99.90;;;;;;5051066;28;20042;-72
2023/07/20 02:29:56;;;;;;;5.18;2.30;;;15.20;99.90;;;;;;5034225;28;20076;-71
2023/07/20 02:32:22;;;;;;;5.32;2.25;;;15.20;99.90;;;;;;5035373;28;20394;-72
2023/07/20 02:34:48;;;;;;;3.65;2.20;;;15.10;99.90;;;;;;5033964;28;20463;-72
2023/07/20 02:37:13;;;;;;;3.42;2.20;;;15.10;99.90;;;;;;5034267;28;20442;-72
2023/07/20 02:39:39;;;;;;;3.47;1.95;;;15.10;99.90;;;;;;5033944;28;20120;-72
2023/07/20 02:42:06;;;;;;;3.25;1.90;;;15.00;99.90;;;;;;5033896;28;20124;-72
2023/07/20 02:44:31;;;;;;;3.85;1.88;;;15.00;99.90;;;;;;5036995;28;20056;-72
2023/07/20 02:46:57;;;;;;;3.88;2.25;;;15.00;99.90;;;;;;5033822;28;20124;-73
2023/07/20 02:49:23;;;;;;;4.55;2.08;;;14.90;99.90;;;;;;5034291;28;20092;-72
2023/07/20 02:51:48;;;;;;;3.13;2.10;;;14.90;99.90;;;;;;5033719;28;20061;-72
2023/07/20 02:54:15;;;;;;;4.13;2.30;;;14.90;99.90;;;;;;5033911;28;20085;-72
2023/07/20 02:56:40;;;;;;;4.38;2.00;;;14.90;99.90;;;;;;5033283;28;20043;-72
2023/07/20 02:59:06;;;;;;;6.35;2.08;;;14.90;99.90;;;;;;5032881;28;20458;-73
2023/07/20 03:01:32;;;;;;;3.35;2.08;;;14.90;99.90;;;;;;5035080;28;20124;-72
2023/07/20 03:03:58;;;;;;;4.35;2.08;;;14.80;99.90;;;;;;5016993;28;20403;-72
2023/07/20 03:06:24;;;;;;;4.40;2.20;;;14.80;99.90;;;;;;5033365;28;20096;-72
2023/07/20 03:08:51;;;;;;;3.83;2.10;;;14.80;99.90;;;;;;5033283;28;20056;-73
2023/07/20 03:11:18;;;;;;;4.38;1.95;;;14.80;99.90;;;;;;5034778;28;20038;-71
2023/07/20 03:13:45;;;;;;;3.60;2.17;;;14.80;99.90;;;;;;5033866;28;20050;-71
2023/07/20 03:16:12;;;;;;;5.22;2.50;;;14.80;99.90;;;;;;5033307;28;20142;-72
2023/07/20 03:18:38;;;;;;;5.40;2.50;;;14.80;99.90;;;;;;5032896;28;20144;-71
2023/07/20 03:21:05;;;;;;;3.90;2.53;;;14.80;99.90;;;;;;5016860;28;20041;-71
2023/07/20 03:23:31;;;;;;;4.90;2.45;;;14.70;99.90;;;;;;5033255;28;20457;-72
2023/07/20 03:25:57;;;;;;;7.35;2.50;;;14.70;99.90;;;;;;5032946;28;20048;-71
2023/07/20 03:28:23;;;;;;;4.40;2.25;;;14.70;99.90;;;;;;5033362;28;20045;-72
2023/07/20 03:30:58;;;;;;;3.92;2.75;;;14.70;99.90;;;;;;5032931;28;20490;-75
2023/07/20 03:33:29;;;;;;;4.40;2.50;;;14.60;99.90;;;;;;5033410;28;20049;-72
2023/07/20 03:35:56;;;;;;;3.85;2.58;;;14.60;99.90;;;;;;5032717;28;20053;-72
2023/07/20 03:38:22;;;;;;;3.25;2.50;;;14.60;99.90;;;;;;5033046;28;20088;-71
2023/07/20 03:40:59;;;;;;;4.50;2.80;;;14.60;99.90;;;;;;5033040;28;20400;-74
2023/07/20 03:43:26;;;;;;;4.28;2.95;;;14.50;99.90;;;;;;5033267;28;20164;-71
2023/07/20 03:45:52;;;;;;;5.75;2.70;;;14.50;99.90;;;;;;5032538;28;20121;-75
2023/07/20 03:48:19;;;;;;;3.65;2.60;;;14.50;99.90;;;;;;5032584;28;20049;-71
2023/07/20 03:50:46;;;;;;;4.28;2.90;;;14.50;99.90;;;;;;5016385;28;20057;-71
2023/07/20 03:53:12;;;;;;;4.47;2.70;;;14.50;99.90;;;;;;5048702;28;20041;-71
2023/07/20 03:55:40;;;;;;;4.45;2.55;;;14.50;99.90;;;;;;5032539;28;20053;-72
2023/07/20 03:58:06;;;;;;;4.53;3.17;;;14.40;99.90;;;;;;5032220;28;20449;-71
2023/07/20 04:00:32;;;;;;;4.57;3.08;;;14.40;99.90;;;;;;5032691;28;20049;-71
2023/07/20 04:02:58;;;;;;;3.45;2.63;;;14.40;99.90;;;;;;5015514;28;20491;-71
2023/07/20 04:05:25;;;;;;;3.50;2.60;;;14.40;99.90;;;;;;4999992;28;20132;-71
2023/07/20 04:07:51;;;;;;;6.78;3.20;;;14.40;99.90;;;;;;5032571;28;20128;-71
2023/07/20 04:10:18;;;;;;;6.13;3.05;;;14.40;99.90;;;;;;5032070;28;20135;-72
2023/07/20 04:12:44;;;;;;;4.88;2.72;;;14.40;99.90;;;;;;5033547;28;20056;-71
2023/07/20 04:15:10;;;;;;;5.70;2.40;;;14.40;99.90;;;;;;5033117;28;20049;-71
2023/07/20 04:17:36;;;;;;;4.65;2.28;;;14.40;99.90;;;;;;5015501;28;20448;-71
2023/07/20 04:20:02;;;;;;;7.35;2.25;;;14.50;99.90;;;;;;5032611;28;20056;-71
2023/07/20 04:22:28;;;;;;;4.35;2.30;;;14.50;99.90;;;;;;5033327;28;20056;-71
2023/07/20 04:24:54;;;;;;;4.55;2.30;;;14.50;99.90;;;;;;5031985;28;20103;-70
2023/07/20 04:27:20;;;;;;;6.63;2.40;;;14.60;99.90;;;;;;5030839;28;20053;-71
2023/07/20 04:29:46;;;;;;;4.45;2.95;;;14.60;99.90;;;;;;5032632;28;20037;-72
2023/07/20 04:32:11;;;;;;;4.18;2.17;;;14.60;99.90;;;;;;5014599;28;20054;-71
2023/07/20 04:34:37;;;;;;;4.35;2.50;;;14.60;99.90;;;;;;5015584;28;20053;-71
2023/07/20 04:37:04;;;;;;;5.85;2.58;;;14.60;99.90;;;;;;5014964;28;20399;-72
2023/07/20 04:39:30;;;;;;;3.88;2.25;;;14.60;99.90;;;;;;5030773;28;20130;-71
2023/07/20 04:41:56;;;;;;;3.05;1.92;;;14.60;99.90;;;;;;5031397;28;20041;-72
2023/07/20 04:44:22;;;;;;;3.97;2.03;;;14.60;99.90;;;;;;5031432;28;20451;-71
2023/07/20 04:46:48;;;;;;;3.55;2.22;;;14.80;99.90;;;;;;5015670;28;20049;-72
2023/07/20 04:49:13;;;;;;;4.43;2.10;;;15.00;99.90;;;;;;5015044;28;20045;-72
2023/07/20 04:51:39;;;;;;;4.20;2.35;;;15.20;99.90;;;;;;5032016;28;20053;-70
2023/07/20 04:54:05;;;;;;;4.15;2.20;;;15.40;99.90;;;;;;5032364;28;20471;-71
2023/07/20 04:56:31;;;;;;;5.18;1.95;;;15.80;99.90;;;;;;5031896;28;20049;-71
2023/07/20 04:58:56;;;;;;;5.07;2.15;;;16.40;99.90;;;;;;5031465;28;20501;-71
2023/07/20 05:01:23;;;;;;;5.80;2.00;;;17.30;99.90;;;;;;4998782;28;20045;-71
2023/07/20 05:03:49;;;;;;;5.85;1.80;;;18.20;99.90;;;;;;5033469;28;20506;-70
2023/07/20 05:06:15;;;;;;;3.58;1.95;;;19.00;99.90;;;;;;5037444;28;20060;-70
2023/07/20 05:08:41;;;;;;;2.33;1.40;;;19.70;99.90;;;;;;5035853;28;20052;-70
2023/07/20 05:11:07;;;;;;;4.10;1.45;;;20.40;99.90;;;;;;5034192;28;20434;-71
2023/07/20 05:13:33;;;;;;;1.55;1.23;;;21.10;99.90;;;;;;5032915;28;20053;-70
2023/07/20 05:15:59;;;;;;;4.88;1.70;;;21.50;99.90;;;;;;5031410;28;20127;-70
2023/07/20 05:18:25;;;;;;;4.15;1.80;;;21.90;99.90;;;;;;5030622;28;20463;-70
2023/07/20 05:20:51;;;;;;;4.78;1.60;;;22.30;99.90;;;;;;5031225;28;20056;-70
2023/07/20 05:23:19;;;;;;;4.63;1.65;;;22.70;99.90;;;;;;5014400;28;20479;-71
2023/07/20 05:25:45;;;;;;;3.38;1.52;;;23.00;99.90;;;;;;5031270;28;20064;-70
2023/07/20 05:28:11;;;;;;;2.22;1.40;;;23.20;99.70;;;;;;5031599;28;20048;-71
2023/07/20 05:30:37;;;;;;;3.10;1.50;;;23.50;99.30;;;;;;5032089;28;20468;-70
2023/07/20 05:33:03;;;;;;;4.55;1.50;;;23.70;98.90;;;;;;5031351;28;20148;-70
2023/07/20 05:35:28;;;;;;;2.90;1.30;;;23.90;98.60;;;;;;5031844;28;20057;-71
2023/07/20 05:37:55;;;;;;;2.80;1.13;;;24.20;98.20;;;;;;5031149;28;20546;-71
2023/07/20 05:40:21;;;;;;;2.92;1.30;;;24.40;97.70;;;;;;5030648;28;20046;-71
2023/07/20 05:42:48;;;;;;;4.85;1.23;;;24.70;97.30;;;;;;5032430;28;20042;-70
2023/07/20 05:45:14;;;;;;;2.45;1.13;;;24.90;96.80;;;;;;5031752;28;20053;-71
2023/07/20 05:47:41;;;;;;;4.35;1.30;;;25.20;96.60;;;;;;5013358;28;20407;-72
2023/07/20 05:50:07;;;;;;;4.15;1.45;;;25.50;96.10;;;;;;5030009;28;20096;-71
2023/07/20 05:52:33;;;;;;;5.03;1.42;;;25.70;95.70;;;;;;5032943;28;20048;-71
2023/07/20 05:54:59;;;;;;;2.75;1.40;;;25.90;95.70;;;;;;5034560;28;20479;-70
2023/07/20 05:57:24;;;;;;;2.97;1.10;;;26.00;95.40;;;;;;5035160;28;20041;-70
2023/07/20 05:59:50;;;;;;;2.90;1.10;;;26.10;95.00;;;;;;5017507;28;20044;-70
2023/07/20 06:02:16;;;;;;;4.03;1.50;;;26.30;94.50;;;;;;5034177;28;20099;-70
2023/07/20 06:04:42;;;;;;;2.97;1.38;;;26.50;94.30;;;;;;5034709;28;20060;-69
2023/07/20 06:07:08;;;;;;;4.38;1.08;;;26.70;93.60;;;;;;5034910;28;20053;-69
2023/07/20 06:09:34;;;;;;;4.25;1.40;;;26.90;93.70;;;;;;5035517;28;20038;-69
2023/07/20 06:11:59;;;;;;;2.50;1.10;;;27.20;93.50;;;;;;5035687;28;20049;-70
2023/07/20 06:14:25;;;;;;;2.33;1.10;;;27.10;92.60;;;;;;5034106;28;20092;-67
2023/07/20 06:16:51;;;;;;;4.70;1.20;;;27.20;92.40;;;;;;5035896;28;20041;-69
2023/07/20 06:19:17;;;;;;;2.47;1.00;;;27.30;92.40;;;;;;5033958;28;20058;-70
2023/07/20 06:21:44;;;;;;;4.43;1.42;;;27.30;92.40;;;;;;5035689;28;20479;-70
2023/07/20 06:24:10;;;;;;;4.03;1.33;;;27.50;91.80;;;;;;5035199;28;20060;-70
2023/07/20 06:26:39;;;;;;;3.08;1.20;;;27.70;92.10;;;;;;5035019;28;20041;-70
2023/07/20 06:29:11;;;;;;;3.28;1.23;;;27.90;92.10;;;;;;5034692;28;20067;-72
2023/07/20 06:31:37;;;;;;;2.63;0.93;;;27.60;90.80;;;;;;5034260;28;20515;-71
2023/07/20 06:34:03;;;;;;;2.85;1.00;;;27.60;91.30;;;;;;5033950;28;20045;-70
2023/07/20 06:36:29;;;;;;;2.75;1.20;;;27.70;91.30;;;;;;5033037;28;20053;-72
2023/07/20 06:38:56;;;;;;;4.53;1.35;;;27.70;91.30;;;;;;5035206;28;20042;-69
2023/07/20 06:41:22;;;;;;;5.15;1.40;;;27.90;91.40;;;;;;5035041;28;20108;-70
2023/07/20 06:43:48;;;;;;;3.55;1.77;;;27.90;91.30;;;;;;5017965;28;20479;-71
2023/07/20 06:46:14;;;;;;;3.60;1.30;;;27.90;91.10;;;;;;5035146;28;20063;-70
2023/07/20 06:48:39;;;;;;;3.70;1.60;;;27.90;91.30;;;;;;5034814;28;20045;-70
2023/07/20 06:51:05;;;;;;;5.93;1.58;;;28.00;91.10;;;;;;5033864;28;20053;-70
2023/07/20 06:53:31;;;;;;;5.32;1.60;;;28.00;91.30;;;;;;5033718;28;20049;-70
2023/07/20 06:55:57;;;;;;;4.45;1.65;;;28.10;91.40;;;;;;5035080;28;20060;-69
2023/07/20 06:58:23;;;;;;;4.07;1.60;;;28.00;91.20;;;;;;5034616;28;20042;-69
2023/07/20 07:00:50;;;;;;;4.47;1.73;;;27.50;91.50;;;;;;5033941;28;20126;-70
2023/07/20 07:03:16;;;;;;;5.05;1.65;;;27.00;91.70;;;;;;5034379;28;20060;-69
2023/07/20 07:05:41;;;;;;;4.28;1.67;;;26.50;91.30;;;;;;5033437;28;20049;-70
2023/07/20 07:08:07;;;;;;;5.03;2.10;;;26.00;91.40;;;;;;5033829;28;20499;-70
2023/07/20 07:10:35;;;;;;;3.22;1.80;;;25.50;91.40;;;;;;5034646;28;20399;-69
2023/07/20 07:13:01;;;;;;;3.22;1.73;;;25.70;91.00;;;;;;5034071;28;20046;-69
2023/07/20 07:15:27;;;;;;;3.75;1.67;;;26.00;91.00;;;;;;5033664;28;20119;-70
2023/07/20 07:17:53;;;;;;;3.75;1.70;;;26.30;90.50;;;;;;5034255;28;20399;-71
2023/07/20 07:20:19;;;;;;;6.15;1.83;;;26.90;90.30;;;;;;5034595;28;20058;-70
2023/07/20 07:22:46;;;;;;;2.40;1.48;;;27.50;89.90;;;;;;5034681;28;20052;-69
2023/07/20 07:25:12;;;;;;;7.28;2.22;;;27.50;89.30;;;;;;5040290;28;20069;-70
2023/07/20 07:27:38;;;;;;;4.70;1.70;;;28.00;89.20;;;;;;5042210;28;20395;-69
2023/07/20 07:30:05;;;;;;;4.43;1.98;;;28.50;89.30;;;;;;5033404;28;20038;-71
2023/07/20 07:32:31;;;;;;;5.72;2.03;;;28.60;89.80;;;;;;5032996;28;20483;-69
2023/07/20 07:34:58;;;;;;;6.22;1.85;;;28.50;89.80;;;;;;5034365;28;20038;-70
2023/07/20 07:37:24;;;;;;;5.68;2.03;;;28.50;89.30;;;;;;5034498;28;20060;-73
2023/07/20 07:39:50;;;;;;;5.10;2.15;;;27.70;90.10;;;;;;5032981;28;20049;-69
2023/07/20 07:42:15;;;;;;;4.57;1.80;;;27.00;90.60;;;;;;5034461;28;20484;-69
2023/07/20 07:44:41;;;;;;;6.82;1.90;;;26.40;90.90;;;;;;5033926;28;20057;-69
2023/07/20 07:47:07;;;;;;;3.28;1.83;;;25.50;91.20;;;;;;5033051;28;20038;-70
2023/07/20 07:49:33;;;;;;;5.32;1.98;;;24.90;91.60;;;;;;5016263;28;20052;-72
2023/07/20 07:52:02;;;;;;;7.65;2.00;;;24.30;92.00;;;;;;5032961;28;20410;-69
2023/07/20 07:54:28;;;;;;;6.30;1.80;;;23.90;92.50;;;;;;5032818;28;20045;-74
2023/07/20 07:56:54;;;;;;;6.18;1.70;;;23.40;93.30;;;;;;5034015;28;20045;-70
2023/07/20 07:59:20;;;;;;;5.55;1.60;;;24.00;93.20;;;;;;5032439;28;20179;-69
2023/07/20 08:01:45;;;;;;;3.45;1.40;;;24.60;91.80;;;;;;5033263;28;20103;-70
2023/07/20 08:04:11;;;;;;;4.45;1.30;;;25.20;91.90;;;;;;5032692;28;20092;-71
2023/07/20 08:06:37;;;;;;;3.97;1.23;;;25.90;91.30;;;;;;5033347;28;20132;-69
2023/07/20 08:09:02;;;;;;;4.35;1.77;;;26.70;90.30;;;;;;5032563;28;20041;-70
2023/07/20 08:11:30;;;;;;;4.07;1.60;;;27.20;90.20;;;;;;5033610;28;20399;-68
2023/07/20 08:13:56;;;;;;;4.10;1.45;;;28.10;90.10;;;;;;5031898;28;20057;-68
2023/07/20 08:16:22;;;;;;;3.88;1.35;;;28.50;88.90;;;;;;5031989;28;20060;-68
2023/07/20 08:18:48;;;;;;;3.33;1.52;;;28.30;88.20;;;;;;5032696;28;20057;-68
2023/07/20 08:21:14;;;;;;;3.13;1.30;;;28.30;87.70;;;;;;5033307;28;20050;-70
2023/07/20 08:23:40;;;;;;;4.15;1.40;;;28.30;87.60;;;;;;5015598;28;20045;-68
2023/07/20 08:26:06;;;;;;;3.08;1.27;;;28.30;86.30;;;;;;5032541;28;20038;-68
2023/07/20 08:28:32;;;;;;;4.20;1.30;;;28.00;87.30;;;;;;5032750;28;20056;-75
2023/07/20 08:30:57;;;;;;;2.95;1.13;;;28.10;86.30;;;;;;5033103;28;20052;-72
2023/07/20 08:33:24;;;;;;;3.30;1.05;;;28.70;84.20;;;;;;5032872;28;20561;-70
2023/07/20 08:35:49;;;;;;;4.25;1.15;;;28.50;85.20;;;;;;5031796;28;20053;-69
2023/07/20 08:38:15;;;;;;;3.45;1.10;;;28.10;86.40;;;;;;5033013;28;20057;-69
2023/07/20 08:40:46;;;;;;;4.03;1.38;;;28.00;87.00;;;;;;5032488;28;20505;-69
2023/07/20 08:43:12;;;;;;;3.55;1.42;;;28.70;86.70;;;;;;5033269;28;20045;-69
2023/07/20 08:45:41;;;;;;;3.13;1.10;;;29.20;86.30;;;;;;5032454;28;20499;-69
2023/07/20 08:48:08;;;;;;;4.35;1.42;;;28.90;85.40;;;;;;5033106;28;20049;-69
2023/07/20 08:50:35;;;;;;;3.38;1.30;;;29.00;85.70;;;;;;5033379;28;20046;-68
2023/07/20 08:53:02;;;;;;;4.68;0.93;;;28.80;83.50;;;;;;5032758;28;20060;-69
2023/07/20 08:55:29;;;;;;;3.55;1.20;;;28.10;84.90;;;;;;5032848;28;20502;-68
2023/07/20 08:57:56;;;;;;;2.38;1.13;;;27.70;86.00;;;;;;5031308;28;20080;-68
2023/07/20 09:00:23;;;;;;;2.78;1.08;;;27.70;86.20;;;;;;5031787;28;20364;-68
2023/07/20 09:02:54;;;;;;;2.15;1.13;;;28.10;86.70;;;;;;5032291;28;20049;-68
2023/07/20 09:05:22;;;;;;;5.20;1.65;;;28.20;85.30;;;;;;5031458;28;20115;-68
2023/07/20 09:07:48;;;;;;;2.03;1.05;;;27.90;86.20;;;;;;5032336;28;20041;-69
2023/07/20 09:10:14;;;;;;;3.78;1.45;;;27.30;86.70;;;;;;5032618;28;20383;-68
2023/07/20 09:12:42;;;;;;;4.68;1.30;;;27.00;86.90;;;;;;5032432;28;20052;-72
2023/07/20 09:15:09;;;;;;;3.38;1.20;;;27.10;87.10;;;;;;5030818;28;20088;-69
2023/07/20 09:17:35;;;;;;;3.25;1.10;;;27.40;86.50;;;;;;5047805;28;20041;-69
2023/07/20 09:20:11;;;;;;;5.28;1.30;;;27.70;86.40;;;;;;5032101;28;20340;-69
2023/07/20 09:22:41;;;;;;;4.18;1.02;;;28.00;85.00;;;;;;5031407;28;20578;-71
2023/07/20 09:25:11;;;;;;;2.38;1.10;;;28.60;85.40;;;;;;5030955;28;20195;-68
2023/07/20 09:27:39;;;;;;;4.63;1.00;;;28.30;85.20;;;;;;5031924;28;20049;-68
2023/07/20 09:30:08;;;;;;;2.13;1.10;;;28.00;84.70;;;;;;5031930;28;20129;-68
2023/07/20 09:32:40;;;;;;;2.83;1.00;;;27.20;85.30;;;;;;5031169;28;20045;-68
2023/07/20 09:35:07;;;;;;;2.25;1.20;;;26.70;86.20;;;;;;5031729;28;20601;-67
2023/07/20 09:37:33;;;;;;;3.53;1.25;;;26.40;86.70;;;;;;5032340;28;20081;-67
2023/07/20 09:39:59;;;;;;;3.35;0.90;;;26.30;87.20;;;;;;5031693;28;20071;-67
2023/07/20 09:42:27;;;;;;;1.73;0.90;;;26.60;88.00;;;;;;5031815;28;20037;-66
2023/07/20 09:44:53;;;;;;;1.95;1.20;;;27.20;87.10;;;;;;5031452;28;20053;-66
2023/07/20 09:47:22;;;;;;;3.22;1.20;;;28.00;86.60;;;;;;5030815;28;20041;-66
2023/07/20 09:49:48;;;;;;;4.60;1.15;;;28.10;85.70;;;;;;5031583;28;20049;-68
2023/07/20 09:52:15;;;;;;;4.00;1.20;;;28.00;86.30;;;;;;5032070;28;20065;-67
2023/07/20 09:54:44;;;;;;;2.97;0.98;;;27.30;85.80;;;;;;5030680;28;20046;-68
2023/07/20 09:57:13;;;;;;;2.45;1.20;;;26.60;86.20;;;;;;5031424;28;20076;-68
2023/07/20 09:59:41;;;;;;;2.75;1.10;;;26.20;86.90;;;;;;5032055;28;20128;-68
2023/07/20 10:02:18;;;;;;;4.93;1.10;;;25.90;87.10;;;;;;5031624;28;20049;-68
2023/07/20 10:04:44;;;;;;;3.30;1.17;;;26.00;88.10;;;;;;5032103;28;20055;-67
2023/07/20 10:07:12;;;;;;;3.00;1.27;;;26.30;87.60;;;;;;5030514;28;20106;-69
2023/07/20 10:09:40;;;;;;;3.42;1.10;;;26.50;85.80;;;;;;5032182;28;20557;-67
2023/07/20 10:12:07;;;;;;;3.72;1.40;;;26.60;86.40;;;;;;5031614;28;20636;-68
2023/07/20 10:14:38;;;;;;;5.68;1.33;;;26.40;86.40;;;;;;5031957;28;20049;-68
2023/07/20 10:17:06;;;;;;;3.85;1.35;;;26.30;86.40;;;;;;5031671;28;20045;-67
2023/07/20 10:19:44;;;;;;;5.75;1.33;;;25.60;87.90;;;;;;5031807;28;20116;-68
2023/07/20 10:22:15;;;;;;;2.60;1.23;;;25.20;87.70;;;;;;5031413;28;20045;-68
2023/07/20 10:24:45;;;;;;;2.38;1.20;;;25.10;87.90;;;;;;5032070;28;20402;-68
2023/07/20 10:27:10;;;;;;;3.00;1.20;;;25.00;88.60;;;;;;5031519;28;20081;-67
2023/07/20 10:29:37;;;;;;;4.45;1.15;;;25.10;89.10;;;;;;5031686;28;20077;-68
2023/07/20 10:32:04;;;;;;;3.38;1.00;;;25.50;87.60;;;;;;5030428;28;20057;-68
2023/07/20 10:34:30;;;;;;;3.83;1.15;;;25.40;87.20;;;;;;5014467;28;20049;-67
2023/07/20 10:36:55;;;;;;;3.58;1.17;;;25.60;86.70;;;;;;5030037;28;20053;-68
2023/07/20 10:39:30;;;;;;;2.58;1.20;;;25.30;86.40;;;;;;5034859;28;20052;-68
2023/07/20 10:42:01;;;;;;;4.13;1.20;;;25.00;87.20;;;;;;5033646;28;20049;-67
2023/07/20 10:44:27;;;;;;;1.90;1.02;;;25.20;88.20;;;;;;5035337;28;20055;-67
2023/07/20 10:47:00;;;;;;;3.17;1.10;;;25.40;87.30;;;;;;5034949;28;20391;-72
2023/07/20 10:49:27;;;;;;;3.22;1.10;;;25.70;87.90;;;;;;5035287;28;20056;-67
2023/07/20 10:52:00;;;;;;;2.83;1.25;;;25.60;88.10;;;;;;5033938;28;20084;-70
2023/07/20 10:54:25;;;;;;;3.58;1.40;;;25.50;87.30;;;;;;5035140;28;20065;-68
2023/07/20 10:56:51;;;;;;;3.95;1.15;;;25.50;87.80;;;;;;5035329;28;20061;-68
2023/07/20 10:59:23;;;;;;;3.42;1.20;;;25.60;87.30;;;;;;5034497;28;20094;-68
2023/07/20 11:01:50;;;;;;;3.63;1.25;;;25.70;86.90;;;;;;5034932;28;20053;-68
2023/07/20 11:04:18;;;;;;;3.65;1.30;;;25.60;86.50;;;;;;5034445;28;20403;-68
2023/07/20 11:06:44;;;;;;;1.77;1.05;;;25.50;87.40;;;;;;5035015;28;20048;-68
2023/07/20 11:09:14;;;;;;;3.63;1.20;;;25.10;87.50;;;;;;5033077;28;20088;-68
2023/07/20 11:11:42;;;;;;;1.70;1.05;;;24.70;87.80;;;;;;5034933;28;20404;-68
2023/07/20 11:14:10;;;;;;;3.72;1.23;;;24.60;88.70;;;;;;5033219;28;20060;-68
2023/07/20 11:16:45;;;;;;;3.72;1.00;;;24.50;88.10;;;;;;5034805;28;20072;-68
2023/07/20 11:19:18;;;;;;;4.53;1.45;;;24.20;87.90;;;;;;5033883;28;20067;-68
2023/07/20 11:21:46;;;;;;;1.75;1.05;;;24.00;88.70;;;;;;5034405;28;20072;-68
2023/07/20 11:24:13;;;;;;;2.75;1.05;;;24.00;89.20;;;;;;5034144;28;20051;-69
2023/07/20 11:26:52;;;;;;;2.65;1.00;;;23.90;89.20;;;;;;5034596;28;20096;-67
2023/07/20 11:29:20;;;;;;;1.58;0.98;;;23.70;89.10;;;;;;5034280;28;20411;-69
2023/07/20 11:31:47;;;;;;;2.67;1.13;;;23.70;90.00;;;;;;5033274;28;20096;-71
2023/07/20 11:34:17;;;;;;;4.97;1.08;;;24.00;90.00;;;;;;5034048;28;20123;-69
2023/07/20 11:36:45;;;;;;;2.47;1.00;;;24.10;90.20;;;;;;5049770;28;20053;-69
2023/07/20 11:39:12;;;;;;;2.90;1.20;;;24.20;89.60;;;;;;5034066;28;20081;-69
2023/07/20 11:41:43;;;;;;;5.57;1.27;;;24.10;89.80;;;;;;5049819;28;20098;-69
2023/07/20 11:44:13;;;;;;;2.38;1.08;;;24.10;89.50;;;;;;5033982;28;20085;-69
2023/07/20 11:46:39;;;;;;;2.35;1.30;;;24.10;89.50;;;;;;5034285;28;20526;-68
2023/07/20 11:49:05;;;;;;;4.68;0.95;;;24.20;90.10;;;;;;5032992;28;20072;-68
2023/07/20 11:51:32;;;;;;;1.67;1.10;;;24.20;90.10;;;;;;5016544;28;20471;-67
2023/07/20 11:53:58;;;;;;;4.60;1.40;;;24.00;89.20;;;;;;5049290;28;20491;-68
2023/07/20 11:56:25;;;;;;;3.17;1.20;;;24.00;89.50;;;;;;5033614;28;20132;-67
2023/07/20 11:58:56;;;;;;;3.97;1.15;;;24.10;89.30;;;;;;5034060;28;20052;-67
2023/07/20 12:01:23;;;;;;;1.92;0.95;;;24.00;89.30;;;;;;5033966;28;20119;-67
2023/07/20 12:03:50;;;;;;;5.68;1.30;;;24.10;89.70;;;;;;5037095;28;20096;-69
2023/07/20 12:06:16;;;;;;;3.13;1.35;;;24.20;90.40;;;;;;5001702;28;20053;-68
2023/07/20 12:08:43;;;;;;;4.25;1.10;;;24.40;89.70;;;;;;5034758;28;20068;-68
2023/07/20 12:11:09;;;;;;;2.05;1.05;;;24.50;89.80;;;;;;5033509;28;20064;-69
2023/07/20 12:13:44;;;;;;;4.78;1.42;;;24.40;89.60;;;;;;5033625;28;20124;-68
2023/07/20 12:16:15;;;;;;;4.15;1.05;;;24.30;88.80;;;;;;5032288;28;20049;-69
2023/07/20 12:18:42;;;;;;;2.20;1.15;;;24.10;89.40;;;;;;5031943;28;20502;-68
2023/07/20 12:21:09;;;;;;;3.10;1.20;;;24.10;90.20;;;;;;5032283;28;20061;-68
2023/07/20 12:23:39;;;;;;;3.15;1.10;;;24.10;90.00;;;;;;5033450;28;20053;-68
2023/07/20 12:26:09;;;;;;;4.78;1.45;;;24.10;89.20;;;;;;5032988;28;20123;-71
2023/07/20 12:28:42;;;;;;;4.65;1.40;;;24.00;88.90;;;;;;5033298;28;20052;-68
2023/07/20 12:31:10;;;;;;;2.45;1.15;;;23.90;89.00;;;;;;5033259;28;20052;-68
2023/07/20 12:33:39;;;;;;;2.83;1.00;;;23.80;89.50;;;;;;5033253;28;20052;-68
2023/07/20 12:36:05;;;;;;;4.97;1.08;;;23.60;89.90;;;;;;5033452;28;20124;-71
2023/07/20 12:38:31;;;;;;;1.27;1.00;;;23.50;90.00;;;;;;5031687;28;20108;-68
2023/07/20 12:40:58;;;;;;;2.63;0.90;;;23.50;90.10;;;;;;5032922;28;20049;-68
2023/07/20 12:43:24;;;;;;;5.00;1.10;;;23.70;90.10;;;;;;5032670;28;20388;-68
2023/07/20 12:45:50;;;;;;;1.60;0.82;;;23.80;90.20;;;;;;5032987;28;20054;-68
2023/07/20 12:48:15;;;;;;;1.98;1.10;;;23.80;90.40;;;;;;5031412;28;20057;-68